createdAt,value
2019-04-25T00:00:15.320Z,100287.41
2019-04-25T00:03:19.206Z,100297.34
2019-04-25T00:06:24.272Z,100318.63
2019-04-25T00:09:31.720Z,100337.94
2019-04-25T00:12:35.659Z,100341.31
2019-04-25T00:15:39.943Z,100362.13
2019-04-25T00:18:44.234Z,100353.08
2019-04-25T00:22:02.146Z,100331.34
2019-04-25T00:25:26.246Z,100322.16
2019-04-25T00:28:31.486Z,100321.97
2019-04-25T00:31:35.336Z,100319.56
2019-04-25T00:34:39.078Z,100319.27
2019-04-25T00:37:44.333Z,100318.64
2019-04-25T00:40:48.415Z,100324.56
2019-04-25T00:43:52.665Z,100312.43
2019-04-25T00:46:56.917Z,100330.28
2019-04-25T00:50:02.324Z,100343.14
2019-04-25T00:53:06.071Z,100353.92
2019-04-25T00:56:11.210Z,100338.30
2019-04-25T00:59:23.802Z,100318.40
2019-04-25T01:02:35.423Z,100321.70
2019-04-25T01:05:39.294Z,100313.27
2019-04-25T01:08:43.350Z,100294.95
2019-04-25T01:11:47.960Z,100310.84
2019-04-25T01:14:52.830Z,100299.36
2019-04-25T01:17:57.609Z,100294.81
2019-04-25T01:21:01.310Z,100308.13
2019-04-25T01:24:05.276Z,100294.70
2019-04-25T01:27:09.132Z,100298.19
2019-04-25T01:30:16.007Z,100301.64
2019-04-25T01:33:20.117Z,100321.90
2019-04-25T01:36:33.230Z,100329.41
2019-04-25T01:39:44.178Z,100348.31
2019-04-25T01:43:01.566Z,100362.61
2019-04-25T01:46:05.841Z,100372.63
2019-04-25T01:49:09.611Z,100370.81
2019-04-25T01:52:13.728Z,100378.98
2019-04-25T01:55:17.498Z,100400.97
2019-04-25T01:58:21.262Z,100411.77
2019-04-25T02:01:25.133Z,100409.33
2019-04-25T02:04:28.808Z,100417.83
2019-04-25T02:07:33.353Z,100411.62
2019-04-25T02:10:38.217Z,100431.34
2019-04-25T02:13:43.687Z,100434.48
2019-04-25T02:16:47.738Z,100441.41
2019-04-25T02:19:52.156Z,100446.97
2019-04-25T02:22:57.915Z,100458.48
2019-04-25T02:26:13.411Z,100455.46
2019-04-25T02:29:07.933Z,100461.63
2019-04-25T02:32:11.703Z,100453.52
2019-04-25T02:35:16.116Z,100470.16
2019-04-25T02:38:19.879Z,100458.88
2019-04-25T02:41:25.036Z,100460.35
2019-04-25T02:44:29.784Z,100465.57
2019-04-25T02:47:46.194Z,100463.44
2019-04-25T02:50:56.973Z,100461.42
2019-04-25T02:54:02.717Z,100458.80
2019-04-25T02:57:08.276Z,100474.23
2019-04-25T03:00:24.588Z,100468.97
2019-04-25T03:03:27.974Z,100468.84
2019-04-25T03:06:31.748Z,100474.87
2019-04-25T03:09:35.457Z,100474.74
2019-04-25T03:12:39.114Z,100475.34
2019-04-25T03:15:44.175Z,100468.84
2019-04-25T03:19:18.187Z,100469.75
2019-04-25T03:22:26.746Z,100464.11
2019-04-25T03:25:30.944Z,100473.05
2019-04-25T03:28:35.101Z,100459.86
2019-04-25T03:31:39.211Z,100467.55
2019-04-25T03:34:43.497Z,100475.72
2019-04-25T03:37:47.200Z,100462.80
2019-04-25T03:40:51.250Z,100470.58
2019-04-25T03:43:54.941Z,100473.23
2019-04-25T03:46:58.666Z,100480.77
2019-04-25T03:50:05.741Z,100487.27
2019-04-25T03:53:08.722Z,100492.66
2019-04-25T03:56:14.456Z,100502.13
2019-04-25T03:59:17.885Z,100498.59
2019-04-25T04:02:23.398Z,100499.47
2019-04-25T04:05:27.557Z,100495.52
2019-04-25T04:08:31.259Z,100508.25
2019-04-25T04:11:35.370Z,100504.35
2019-04-25T04:14:39.056Z,100507.06
2019-04-25T04:17:48.443Z,100517.09
2019-04-25T04:20:58.737Z,100529.70
2019-04-25T04:24:11.780Z,100551.94
2019-04-25T04:27:17.884Z,100557.72
2019-04-25T04:30:21.892Z,100565.91
2019-04-25T04:33:31.822Z,100565.27
2019-04-25T04:36:31.008Z,100582.53
2019-04-25T04:39:34.691Z,100579.23
2019-04-25T04:42:38.379Z,100575.89
2019-04-25T04:45:43.866Z,100583.34
2019-04-25T04:48:47.818Z,100589.56
2019-04-25T04:51:52.100Z,100598.64
2019-04-25T04:55:05.188Z,100603.02
2019-04-25T04:58:01.808Z,100598.13
2019-04-25T05:01:05.928Z,100597.83
2019-04-25T05:04:17.106Z,100615.41
2019-04-25T05:07:38.629Z,100619.95
2019-04-25T05:10:43.211Z,100623.77
2019-04-25T05:13:47.197Z,100631.53
2019-04-25T05:16:51.228Z,100639.53
2019-04-25T05:19:54.869Z,100654.66
2019-04-25T05:22:58.574Z,100657.53
2019-04-25T05:26:02.291Z,100661.73
2019-04-25T05:29:05.953Z,100670.02
2019-04-25T05:32:10.045Z,100671.83
2019-04-25T05:35:14.980Z,100679.97
2019-04-25T05:38:19.005Z,100683.21
2019-04-25T05:41:33.766Z,100678.75
2019-04-25T05:44:37.862Z,100683.19
2019-04-25T05:47:41.866Z,100693.77
2019-04-25T05:50:45.554Z,100704.19
2019-04-25T05:53:49.255Z,100707.80
2019-04-25T05:56:53.753Z,100696.52
2019-04-25T05:59:57.505Z,100700.27
2019-04-25T06:03:01.532Z,100703.34
2019-04-25T06:06:05.466Z,100711.25
2019-04-25T06:09:19.636Z,100706.38
2019-04-25T06:12:45.558Z,100721.98
2019-04-25T06:15:50.914Z,100723.85
2019-04-25T06:19:13.674Z,100728.95
2019-04-25T06:22:15.361Z,100723.45
2019-04-25T06:25:21.811Z,100725.93
2019-04-25T06:28:28.268Z,100736.05
2019-04-25T06:31:32.603Z,100745.86
2019-04-25T06:34:37.424Z,100749.82
2019-04-25T06:37:41.121Z,100749.97
2019-04-25T06:40:45.009Z,100752.34
2019-04-25T06:43:50.353Z,100743.86
2019-04-25T06:47:03.369Z,100752.86
2019-04-25T06:50:07.504Z,100755.61
2019-04-25T06:53:11.204Z,100747.28
2019-04-25T06:56:14.960Z,100755.44
2019-04-25T06:59:19.235Z,100756.55
2019-04-25T07:02:25.339Z,100756.90
2019-04-25T07:05:33.836Z,100764.81
2019-04-25T07:08:35.322Z,100764.12
2019-04-25T07:11:39.301Z,100756.83
2019-04-25T07:14:44.033Z,100759.48
2019-04-25T07:17:47.760Z,100758.40
2019-04-25T07:20:53.264Z,100740.91
2019-04-25T07:23:57.113Z,100737.20
2019-04-25T07:27:18.810Z,100741.58
2019-04-25T07:30:51.438Z,100739.13
2019-04-25T07:33:59.898Z,100736.45
2019-04-25T07:37:04.074Z,100742.80
2019-04-25T07:40:10.168Z,100732.91
2019-04-25T07:43:13.859Z,100740.89
2019-04-25T07:46:17.731Z,100730.43
2019-04-25T07:49:23.360Z,100744.35
2019-04-25T07:52:27.136Z,100743.31
2019-04-25T07:55:31.085Z,100745.70
2019-04-25T07:58:50.577Z,100751.06
2019-04-25T08:01:47.328Z,100748.87
2019-04-25T08:04:51.020Z,100750.66
2019-04-25T08:07:54.713Z,100753.56
2019-04-25T08:11:04.964Z,100747.93
2019-04-25T08:14:16.792Z,100748.62
2019-04-25T08:17:39.972Z,100750.62
2019-04-25T08:20:44.131Z,100748.80
2019-04-25T08:23:49.605Z,100751.00
2019-04-25T08:26:53.550Z,100751.48
2019-04-25T08:29:57.289Z,100752.97
2019-04-25T08:33:01.107Z,100750.14
2019-04-25T08:36:09.163Z,100747.72
2019-04-25T08:39:12.293Z,100741.80
2019-04-25T08:42:15.996Z,100742.53
2019-04-25T08:45:20.244Z,100741.22
2019-04-25T08:48:27.359Z,100746.81
2019-04-25T08:51:34.882Z,100737.28
2019-04-25T08:54:48.597Z,100737.28
2019-04-25T08:58:17.173Z,100735.45
2019-04-25T09:01:34.215Z,100726.01
2019-04-25T09:05:02.011Z,100725.07
2019-04-25T09:08:05.774Z,100730.91
2019-04-25T09:11:09.546Z,100748.16
2019-04-25T09:14:13.493Z,100748.23
2019-04-25T09:17:17.274Z,100758.30
2019-04-25T09:20:21.099Z,100763.16
2019-04-25T09:23:24.796Z,100761.12
2019-04-25T09:26:28.516Z,100759.16
2019-04-25T09:29:34.186Z,100748.42
2019-04-25T09:32:37.619Z,100750.88
2019-04-25T09:35:41.657Z,100757.09
2019-04-25T09:38:48.520Z,100748.11
2019-04-25T09:41:50.791Z,100746.90
2019-04-25T09:45:06.158Z,100754.75
2019-04-25T09:48:23.183Z,100760.28
2019-04-25T09:51:39.763Z,100754.23
2019-04-25T09:54:58.829Z,100753.73
2019-04-25T09:58:06.736Z,100760.33
2019-04-25T10:01:13.882Z,100752.48
2019-04-25T10:04:18.312Z,100759.36
2019-04-25T10:07:22.077Z,100740.23
2019-04-25T10:10:26.709Z,100744.93
2019-04-25T10:13:30.666Z,100741.16
2019-04-25T10:16:35.052Z,100735.84
2019-04-25T10:19:39.189Z,100748.16
2019-04-25T10:22:44.571Z,100748.80
2019-04-25T10:25:48.949Z,100753.38
2019-04-25T10:28:52.639Z,100741.66
2019-04-25T10:31:56.700Z,100749.44
2019-04-25T10:35:00.346Z,100749.94
2019-04-25T10:38:04.218Z,100753.05
2019-04-25T10:41:09.074Z,100732.09
2019-04-25T10:44:14.136Z,100740.07
2019-04-25T10:47:18.011Z,100741.55
2019-04-25T10:50:23.718Z,100741.20
2019-04-25T10:53:27.631Z,100739.79
2019-04-25T10:56:31.319Z,100735.72
2019-04-25T10:59:35.354Z,100735.52
2019-04-25T11:02:39.208Z,100736.14
2019-04-25T11:05:43.037Z,100734.97
2019-04-25T11:08:47.066Z,100725.96
2019-04-25T11:11:50.870Z,100731.52
2019-04-25T11:14:56.261Z,100734.05
2019-04-25T11:18:00.014Z,100741.53
2019-04-25T11:21:06.057Z,100736.69
2019-04-25T11:24:10.230Z,100733.08
2019-04-25T11:27:13.928Z,100742.81
2019-04-25T11:30:18.826Z,100728.45
2019-04-25T11:33:24.647Z,100732.88
2019-04-25T11:36:28.438Z,100727.89
2019-04-25T11:39:40.500Z,100716.05
2019-04-25T11:42:45.927Z,100711.30
2019-04-25T11:45:50.516Z,100718.04
2019-04-25T11:48:54.852Z,100722.08
2019-04-25T11:51:58.977Z,100726.62
2019-04-25T11:55:04.206Z,100715.37
2019-04-25T11:58:08.453Z,100704.93
2019-04-25T12:01:14.045Z,100714.41
2019-04-25T12:04:17.753Z,100725.47
2019-04-25T12:07:23.636Z,100710.98
2019-04-25T12:10:28.362Z,100714.03
2019-04-25T12:13:32.042Z,100718.80
2019-04-25T12:16:35.918Z,100718.92
2019-04-25T12:19:39.616Z,100716.52
2019-04-25T12:22:44.564Z,100712.68
2019-04-25T12:25:49.790Z,100707.66
2019-04-25T12:28:56.429Z,100713.58
2019-04-25T12:31:59.062Z,100711.20
2019-04-25T12:35:04.120Z,100707.53
2019-04-25T12:38:09.098Z,100706.81
2019-04-25T12:41:13.072Z,100707.72
2019-04-25T12:44:29.576Z,100707.96
2019-04-25T12:47:34.411Z,100712.48
2019-04-25T12:50:38.174Z,100719.81
2019-04-25T12:53:41.899Z,100719.81
2019-04-25T12:56:47.593Z,100712.20
2019-04-25T12:59:51.410Z,100712.20
2019-04-25T13:02:56.591Z,100715.89
2019-04-25T13:06:00.733Z,100718.75
2019-04-25T13:09:07.079Z,100718.75
2019-04-25T13:12:13.443Z,100721.09
2019-04-25T13:15:17.686Z,100717.23
2019-04-25T13:18:21.395Z,100720.14
2019-04-25T13:21:25.086Z,100715.48
2019-04-25T13:24:28.781Z,100712.36
2019-04-25T13:27:37.693Z,100713.47
2019-04-25T13:31:09.033Z,100713.56
2019-04-25T13:34:14.078Z,100716.39
2019-04-25T13:37:17.918Z,100707.87
2019-04-25T13:40:21.692Z,100709.75
2019-04-25T13:43:25.553Z,100717.22
2019-04-25T13:46:29.238Z,100719.28
2019-04-25T13:49:33.011Z,100714.97
2019-04-25T13:52:37.216Z,100713.48
2019-04-25T13:55:40.973Z,100706.69
2019-04-25T13:58:45.025Z,100708.37
2019-04-25T14:01:49.266Z,100704.83
2019-04-25T14:04:52.969Z,100699.99
2019-04-25T14:07:57.001Z,100690.04
2019-04-25T14:11:00.688Z,100697.13
2019-04-25T14:14:04.749Z,100686.91
2019-04-25T14:17:16.218Z,100688.41
2019-04-25T14:20:35.973Z,100693.67
2019-04-25T14:23:39.671Z,100679.61
2019-04-25T14:26:43.424Z,100680.02
2019-04-25T14:29:47.392Z,100675.20
2019-04-25T14:32:51.153Z,100666.25
2019-04-25T14:35:55.110Z,100663.67
2019-04-25T14:38:58.799Z,100662.52
2019-04-25T14:42:02.583Z,100662.29
2019-04-25T14:45:07.130Z,100665.95
2019-04-25T14:48:10.841Z,100662.53
2019-04-25T14:51:14.597Z,100662.67
2019-04-25T14:54:25.008Z,100662.33
2019-04-25T14:57:30.374Z,100655.55
2019-04-25T15:00:38.018Z,100653.96
2019-04-25T15:03:41.710Z,100643.73
2019-04-25T15:06:45.393Z,100642.27
2019-04-25T15:09:49.114Z,100641.36
2019-04-25T15:12:52.857Z,100647.13
2019-04-25T15:15:56.654Z,100652.56
2019-04-25T15:19:00.809Z,100654.33
2019-04-25T15:22:05.019Z,100653.25
2019-04-25T15:25:08.872Z,100649.70
2019-04-25T15:28:13.011Z,100647.20
2019-04-25T15:31:16.698Z,100648.95
2019-04-25T15:34:22.005Z,100643.86
2019-04-25T15:37:34.849Z,100632.75
2019-04-25T15:40:43.651Z,100629.52
2019-04-25T15:44:05.296Z,100627.42
2019-04-25T15:47:12.866Z,100630.20
2019-04-25T15:50:16.992Z,100621.28
2019-04-25T15:53:21.050Z,100620.94
2019-04-25T15:56:25.086Z,100617.33
2019-04-25T15:59:29.195Z,100618.89
2019-04-25T16:02:33.238Z,100614.38
2019-04-25T16:05:37.170Z,100624.72
2019-04-25T16:08:40.856Z,100616.85
2019-04-25T16:11:44.868Z,100609.45
2019-04-25T16:14:48.567Z,100617.92
2019-04-25T16:17:52.398Z,100606.34
2019-04-25T16:20:56.429Z,100609.97
2019-04-25T16:24:00.308Z,100602.02
2019-04-25T16:27:05.009Z,100609.66
2019-04-25T16:30:08.982Z,100602.28
2019-04-25T16:33:12.715Z,100598.91
2019-04-25T16:36:16.407Z,100607.48
2019-04-25T16:39:23.981Z,100603.61
2019-04-25T16:42:28.353Z,100604.49
2019-04-25T16:45:33.279Z,100601.53
2019-04-25T16:48:37.046Z,100603.80
2019-04-25T16:51:42.347Z,100602.60
2019-04-25T16:54:46.018Z,100605.81
2019-04-25T16:57:49.717Z,100601.52
2019-04-25T17:01:06.921Z,100606.39
2019-04-25T17:04:10.776Z,100603.73
2019-04-25T17:07:14.752Z,100602.47
2019-04-25T17:10:19.107Z,100597.17
2019-04-25T17:13:23.263Z,100597.58
2019-04-25T17:16:44.761Z,100602.32
2019-04-25T17:20:11.007Z,100606.25
2019-04-25T17:23:15.937Z,100602.86
2019-04-25T17:26:19.644Z,100596.53
2019-04-25T17:29:23.674Z,100603.09
2019-04-25T17:32:53.224Z,100598.46
2019-04-25T17:35:59.262Z,100602.96
2019-04-25T17:39:20.284Z,100600.28
2019-04-25T17:42:24.269Z,100608.67
2019-04-25T17:45:33.179Z,100608.44
2019-04-25T17:48:36.973Z,100612.27
2019-04-25T17:51:41.800Z,100612.55
2019-04-25T17:54:46.721Z,100610.91
2019-04-25T17:57:50.440Z,100612.28
2019-04-25T18:00:54.178Z,100610.33
2019-04-25T18:03:57.970Z,100616.89
2019-04-25T18:07:01.697Z,100610.53
2019-04-25T18:10:05.700Z,100603.73
2019-04-25T18:13:09.675Z,100607.80
2019-04-25T18:16:21.822Z,100605.81
2019-04-25T18:19:38.701Z,100617.73
2019-04-25T18:22:56.190Z,100614.08
2019-04-25T18:26:08.116Z,100608.23
2019-04-25T18:29:13.375Z,100608.84
2019-04-25T18:32:17.118Z,100608.80
2019-04-25T18:35:28.735Z,100617.55
2019-04-25T18:38:40.400Z,100604.38
2019-04-25T18:41:48.231Z,100610.39
2019-04-25T18:44:51.920Z,100604.53
2019-04-25T18:47:55.965Z,100607.92
2019-04-25T18:50:59.897Z,100611.09
2019-04-25T18:54:14.070Z,100614.36
2019-04-25T18:57:44.547Z,100617.98
2019-04-25T19:00:58.393Z,100621.57
2019-04-25T19:04:12.038Z,100619.47
2019-04-25T19:07:22.442Z,100621.66
2019-04-25T19:10:21.746Z,100618.14
2019-04-25T19:13:25.506Z,100619.09
2019-04-25T19:16:29.190Z,100617.49
2019-04-25T19:19:32.894Z,100620.66
2019-04-25T19:22:36.650Z,100616.22
2019-04-25T19:25:41.575Z,100616.85
2019-04-25T19:28:45.336Z,100605.87
2019-04-25T19:31:51.923Z,100605.16
2019-04-25T19:34:54.454Z,100608.78
2019-04-25T19:37:58.787Z,100612.88
2019-04-25T19:41:09.679Z,100603.58
2019-04-25T19:44:16.020Z,100597.13
2019-04-25T19:47:20.794Z,100602.73
2019-04-25T19:50:24.720Z,100598.03
2019-04-25T19:53:28.396Z,100599.73
2019-04-25T19:56:32.091Z,100590.68
2019-04-25T19:59:36.181Z,100583.60
2019-04-25T20:02:48.765Z,100574.47
2019-04-25T20:05:58.324Z,100579.21
2019-04-25T20:09:32.682Z,100583.46
2019-04-25T20:12:39.791Z,100581.82
2019-04-25T20:15:44.577Z,100585.53
2019-04-25T20:18:49.779Z,100585.50
2019-04-25T20:21:54.172Z,100590.52
2019-04-25T20:24:57.918Z,100594.46
2019-04-25T20:28:01.608Z,100587.81
2019-04-25T20:31:05.386Z,100590.59
2019-04-25T20:34:09.245Z,100590.63
2019-04-25T20:37:12.946Z,100581.50
2019-04-25T20:40:16.880Z,100581.50
2019-04-25T20:43:20.586Z,100583.52
2019-04-25T20:46:24.271Z,100576.47
2019-04-25T20:49:27.968Z,100569.83
2019-04-25T20:52:31.923Z,100562.14
2019-04-25T20:55:35.603Z,100567.82
2019-04-25T20:58:39.625Z,100571.53
2019-04-25T21:01:43.322Z,100563.60
2019-04-25T21:04:48.765Z,100563.90
2019-04-25T21:07:53.312Z,100563.90
2019-04-25T21:10:57.750Z,100563.33
2019-04-25T21:14:19.737Z,100560.45
2019-04-25T21:17:27.098Z,100560.45
2019-04-25T21:20:30.781Z,100560.02
2019-04-25T21:23:34.779Z,100555.17
2019-04-25T21:26:38.514Z,100552.37
2019-04-25T21:29:42.909Z,100562.64
2019-04-25T21:32:55.249Z,100556.61
2019-04-25T21:35:59.743Z,100553.93
2019-04-25T21:39:06.882Z,100551.38
2019-04-25T21:42:24.168Z,100550.62
2019-04-25T21:45:28.295Z,100554.20
2019-04-25T21:48:32.229Z,100556.87
2019-04-25T21:51:36.185Z,100551.84
2019-04-25T21:54:39.909Z,100558.58
2019-04-25T21:57:43.862Z,100550.62
2019-04-25T22:01:09.409Z,100547.48
2019-04-25T22:04:13.533Z,100543.92
2019-04-25T22:07:17.676Z,100531.32
2019-04-25T22:10:22.102Z,100532.56
2019-04-25T22:13:25.862Z,100532.56
2019-04-25T22:16:29.835Z,100530.98
2019-04-25T22:19:33.708Z,100533.50
2019-04-25T22:22:37.665Z,100533.50
2019-04-25T22:25:41.445Z,100525.73
2019-04-25T22:28:45.480Z,100525.73
2019-04-25T22:32:05.574Z,100532.98
2019-04-25T22:35:34.811Z,100532.98
2019-04-25T22:38:38.778Z,100533.55
2019-04-25T22:41:48.714Z,100526.56
2019-04-25T22:44:50.294Z,100519.10
2019-04-25T22:47:53.986Z,100532.59
2019-04-25T22:50:58.302Z,100532.59
2019-04-25T22:54:03.396Z,100534.31
2019-04-25T22:57:07.233Z,100533.47
2019-04-25T23:00:20.535Z,100529.81
2019-04-25T23:03:32.422Z,100525.37
2019-04-25T23:06:36.125Z,100524.41
2019-04-25T23:09:40.094Z,100514.04
2019-04-25T23:12:44.531Z,100519.78
2019-04-25T23:15:48.244Z,100513.67
2019-04-25T23:18:52.214Z,100503.61
2019-04-25T23:21:56.173Z,100505.63
2019-04-25T23:25:06.077Z,100507.00
2019-04-25T23:28:16.906Z,100507.00
2019-04-25T23:31:24.892Z,100501.06
2019-04-25T23:34:28.966Z,100500.44
2019-04-25T23:37:32.681Z,100508.95
2019-04-25T23:40:36.396Z,100501.63
2019-04-25T23:43:40.465Z,100497.43
2019-04-25T23:46:44.167Z,100497.43
2019-04-25T23:49:47.856Z,100495.47
2019-04-25T23:52:51.742Z,100502.30
2019-04-25T23:55:55.620Z,100502.95
2019-04-25T23:58:59.504Z,100496.27
